Lake Crystal, Minnesota
Current Conditions -  °F | °C
As of 4:35 AM on Saturday 22 Nov 2014 (Local Time) from KMKT Reporting Station
Overcast Overcast  
Wind Chill: 27°   Ceiling: 300
Heat Index: 36°   Visibility: 2mi
Dew Point: 30°   Wind: 13mph
Humidity: 81%   Direction: 200°SSW
Pressure: 29.82"   Gusts: NA
Location:  44.11°N, 94.22°W
Report Text: KMKT 221035Z AUTO 20011KT 2SM OVC003 02/M01 A2982 RMK AO1
Loading
Personal Weather Stations






























Interactive Weather Map New forecast layout! Learn more

10-Day Weather Forecast

Advertisements
Track Severe Weather on mobile